createdAt,value
2018-10-19T00:01:09.964Z,26.60
2018-10-19T00:03:39.649Z,26.47
2018-10-19T00:06:10.623Z,25.97
2018-10-19T00:08:40.475Z,26.10
2018-10-19T00:11:10.389Z,25.47
2018-10-19T00:13:40.219Z,25.37
2018-10-19T00:16:10.354Z,26.57
2018-10-19T00:18:40.223Z,23.67
2018-10-19T00:21:10.056Z,23.47
2018-10-19T00:23:39.840Z,24.80
2018-10-19T00:26:09.756Z,24.53
2018-10-19T00:28:41.717Z,23.80
2018-10-19T00:31:11.615Z,24.70
2018-10-19T00:33:41.368Z,25.93
2018-10-19T00:36:11.251Z,26.13
2018-10-19T00:38:41.006Z,22.93
2018-10-19T00:41:10.824Z,25.53
2018-10-19T00:43:40.538Z,25.00
2018-10-19T00:46:10.322Z,27.10
2018-10-19T00:48:41.179Z,26.03
2018-10-19T00:51:11.173Z,28.03
2018-10-19T00:53:40.955Z,26.00
2018-10-19T00:56:10.753Z,24.87
2018-10-19T00:58:40.492Z,25.77
2018-10-19T01:01:10.210Z,25.20
2018-10-19T01:03:39.905Z,24.03
2018-10-19T01:06:09.715Z,25.60
2018-10-19T01:08:39.501Z,24.47
2018-10-19T01:11:10.140Z,24.27
2018-10-19T01:13:39.886Z,25.10
2018-10-19T01:16:09.630Z,25.83
2018-10-19T01:18:39.576Z,24.33
2018-10-19T01:21:09.607Z,26.37
2018-10-19T01:23:39.334Z,26.33
2018-10-19T01:26:09.091Z,29.60
2018-10-19T01:28:39.860Z,30.17
2018-10-19T01:31:09.631Z,30.37
2018-10-19T01:33:39.780Z,30.03
2018-10-19T01:36:09.508Z,30.40
2018-10-19T01:38:39.296Z,31.20
2018-10-19T01:41:09.244Z,31.50
2018-10-19T01:43:38.939Z,29.20
2018-10-19T01:46:08.650Z,27.97
2018-10-19T01:48:38.609Z,29.70
2018-10-19T01:51:08.591Z,28.80
2018-10-19T01:53:38.448Z,28.60
2018-10-19T01:56:08.249Z,29.17
2018-10-19T01:58:39.339Z,29.20
2018-10-19T02:01:09.323Z,29.23
2018-10-19T02:03:39.378Z,29.67
2018-10-19T02:06:09.104Z,29.47
2018-10-19T02:08:38.909Z,29.20
2018-10-19T02:11:08.657Z,30.00
2018-10-19T02:13:38.368Z,30.70
2018-10-19T02:16:08.271Z,29.83
2018-10-19T02:18:38.252Z,28.33
2018-10-19T02:21:08.224Z,28.93
2018-10-19T02:23:38.169Z,27.97
2018-10-19T02:26:07.936Z,27.90
2018-10-19T02:28:37.699Z,27.47
2018-10-19T02:31:08.774Z,27.13
2018-10-19T02:33:38.754Z,27.23
2018-10-19T02:36:08.431Z,26.93
2018-10-19T02:38:38.125Z,24.73
2018-10-19T02:41:08.338Z,26.43
2018-10-19T02:43:38.272Z,24.43
2018-10-19T02:46:08.070Z,23.57
2018-10-19T02:48:38.065Z,24.40
2018-10-19T02:51:07.943Z,24.70
2018-10-19T02:53:37.685Z,24.70
2018-10-19T02:56:07.498Z,24.20
2018-10-19T02:58:37.210Z,24.30
2018-10-19T03:01:06.931Z,23.57
2018-10-19T03:03:36.726Z,25.50
2018-10-19T03:06:06.595Z,25.27
2018-10-19T03:08:36.443Z,27.60
2018-10-19T03:11:07.868Z,28.57
2018-10-19T03:13:37.735Z,30.10
2018-10-19T03:16:07.522Z,26.20
2018-10-19T03:18:37.285Z,26.20
2018-10-19T03:21:07.400Z,23.90
2018-10-19T03:23:37.174Z,24.20
2018-10-19T03:26:08.166Z,23.23
2018-10-19T03:28:37.892Z,22.60
2018-10-19T03:31:07.651Z,23.47
2018-10-19T03:33:37.352Z,22.00
2018-10-19T03:36:07.107Z,22.83
2018-10-19T03:38:36.963Z,22.80
2018-10-19T03:41:07.085Z,24.00
2018-10-19T03:43:36.819Z,24.77
2018-10-19T03:46:07.272Z,24.17
2018-10-19T03:48:37.223Z,23.13
2018-10-19T03:51:08.324Z,23.30
2018-10-19T03:53:37.998Z,25.37
2018-10-19T03:56:07.792Z,23.50
2018-10-19T03:58:37.537Z,22.97
2018-10-19T04:01:07.318Z,23.73
2018-10-19T04:03:37.053Z,23.80
2018-10-19T04:06:07.583Z,25.30
2018-10-19T04:10:06.744Z,23.90
2018-10-19T04:12:36.597Z,23.77
2018-10-19T04:15:07.438Z,25.23
2018-10-19T04:17:38.264Z,24.03
2018-10-19T04:20:09.532Z,26.40
2018-10-19T04:22:39.529Z,28.77
2018-10-19T04:25:09.242Z,25.90
2018-10-19T04:27:39.102Z,26.03
2018-10-19T04:30:09.363Z,25.27
2018-10-19T04:32:39.191Z,23.60
2018-10-19T04:35:09.009Z,23.60
2018-10-19T04:37:38.796Z,24.73
2018-10-19T04:40:16.381Z,24.33
2018-10-19T04:42:46.118Z,25.10
2018-10-19T04:45:16.114Z,23.40
2018-10-19T04:47:45.958Z,24.27
2018-10-19T04:50:15.879Z,23.40
2018-10-19T04:52:45.559Z,27.23
2018-10-19T04:55:18.455Z,24.63
2018-10-19T04:57:48.226Z,24.00
2018-10-19T05:00:19.380Z,23.60
2018-10-19T05:02:52.577Z,22.90
2018-10-19T05:05:22.498Z,23.57
2018-10-19T05:07:52.178Z,47.70
2018-10-19T05:10:23.089Z,55.37
2018-10-19T05:12:52.846Z,53.10
2018-10-19T05:15:22.774Z,37.90
2018-10-19T05:17:52.450Z,25.97
2018-10-19T05:20:22.348Z,21.17
2018-10-19T05:22:52.071Z,27.27
2018-10-19T05:25:21.817Z,28.27
2018-10-19T05:27:51.613Z,25.73
2018-10-19T05:30:21.291Z,24.80
2018-10-19T05:32:51.147Z,26.70
2018-10-19T05:35:20.977Z,21.53
2018-10-19T05:37:50.753Z,20.60
2018-10-19T05:40:20.508Z,22.50
2018-10-19T05:42:54.290Z,22.00
2018-10-19T05:45:24.137Z,21.70
2018-10-19T05:47:53.994Z,23.47
2018-10-19T05:50:24.178Z,24.20
2018-10-19T05:52:54.017Z,22.47
2018-10-19T05:55:24.728Z,23.73
2018-10-19T05:57:54.527Z,22.60
2018-10-19T06:00:24.272Z,20.33
2018-10-19T06:02:54.112Z,20.63
2018-10-19T06:05:23.907Z,19.73
2018-10-19T06:07:53.996Z,21.53
2018-10-19T06:10:23.756Z,22.37
2018-10-19T06:12:53.501Z,21.37
2018-10-19T06:15:23.462Z,22.07
2018-10-19T06:17:53.208Z,19.67
2018-10-19T06:20:23.128Z,18.77
2018-10-19T06:22:53.037Z,19.83
2018-10-19T06:25:22.841Z,18.60
2018-10-19T06:27:52.825Z,18.60
2018-10-19T06:30:22.676Z,20.23
2018-10-19T06:32:52.723Z,20.83
2018-10-19T06:35:22.506Z,21.77
2018-10-19T06:37:52.567Z,19.40
2018-10-19T06:40:22.888Z,18.97
2018-10-19T06:42:52.779Z,16.27
2018-10-19T06:45:22.576Z,16.07
2018-10-19T06:47:52.320Z,16.77
2018-10-19T06:50:22.345Z,18.87
2018-10-19T06:52:52.246Z,17.13
2018-10-19T06:55:22.300Z,17.23
2018-10-19T06:57:52.012Z,16.90
2018-10-19T07:00:22.021Z,15.50
2018-10-19T07:02:59.271Z,17.03
2018-10-19T07:05:29.943Z,17.00
2018-10-19T07:08:00.001Z,20.17
2018-10-19T07:10:29.811Z,21.33
2018-10-19T07:12:59.596Z,19.77
2018-10-19T07:15:29.348Z,22.83
2018-10-19T07:17:59.173Z,17.87
2018-10-19T07:20:29.097Z,18.10
2018-10-19T07:22:58.957Z,17.50
2018-10-19T07:25:28.719Z,14.53
2018-10-19T07:27:58.504Z,16.43
2018-10-19T07:30:28.173Z,16.30
2018-10-19T07:32:57.951Z,16.03
2018-10-19T07:35:27.793Z,18.17
2018-10-19T07:37:58.218Z,18.03
2018-10-19T07:40:28.127Z,17.83
2018-10-19T07:42:58.071Z,17.97
2018-10-19T07:45:27.820Z,16.90
2018-10-19T07:47:57.788Z,16.77
2018-10-19T07:50:29.006Z,16.00
2018-10-19T07:52:58.788Z,16.03
2018-10-19T07:55:28.505Z,18.43
2018-10-19T07:57:58.179Z,17.80
2018-10-19T08:00:28.031Z,17.33
2018-10-19T08:02:57.781Z,19.33
2018-10-19T08:05:27.636Z,19.33
2018-10-19T08:07:57.448Z,20.70
2018-10-19T08:10:27.216Z,19.27
2018-10-19T08:12:57.019Z,20.47
2018-10-19T08:15:26.735Z,22.10
2018-10-19T08:17:56.522Z,20.37
2018-10-19T08:20:26.388Z,21.73
2018-10-19T08:22:56.166Z,21.20
2018-10-19T08:25:26.062Z,22.00
2018-10-19T08:27:55.856Z,21.93
2018-10-19T08:30:25.695Z,20.60
2018-10-19T08:32:55.390Z,21.20
2018-10-19T08:35:25.342Z,19.53
2018-10-19T08:37:55.478Z,22.00
2018-10-19T08:40:25.162Z,23.20
2018-10-19T08:42:54.975Z,24.77
2018-10-19T08:45:24.716Z,26.33
2018-10-19T08:47:54.571Z,24.27
2018-10-19T08:50:24.564Z,19.60
2018-10-19T08:52:54.595Z,18.80
2018-10-19T08:55:24.392Z,18.90
2018-10-19T08:57:54.199Z,19.43
2018-10-19T09:00:23.954Z,18.13
2018-10-19T09:02:53.700Z,17.17
2018-10-19T09:05:23.484Z,19.33
2018-10-19T09:07:53.390Z,21.03
2018-10-19T09:10:23.215Z,19.73
2018-10-19T09:12:54.158Z,18.90
2018-10-19T09:15:23.973Z,18.87
2018-10-19T09:17:53.809Z,17.20
2018-10-19T09:20:23.590Z,19.27
2018-10-19T09:22:53.506Z,16.30
2018-10-19T09:25:23.234Z,16.30
2018-10-19T09:27:53.073Z,16.50
2018-10-19T09:30:22.802Z,15.77
2018-10-19T09:32:52.475Z,13.53
2018-10-19T09:35:22.310Z,15.13
2018-10-19T09:37:52.273Z,16.00
2018-10-19T09:40:22.076Z,15.80
2018-10-19T09:42:51.796Z,21.10
2018-10-19T09:45:21.516Z,18.93
2018-10-19T09:47:51.228Z,18.60
2018-10-19T09:50:21.057Z,23.07
2018-10-19T09:52:50.812Z,22.00
2018-10-19T09:55:20.547Z,19.77
2018-10-19T09:57:50.338Z,21.13
2018-10-19T10:00:25.253Z,18.13
2018-10-19T10:02:55.120Z,18.80
2018-10-19T10:05:24.980Z,21.60
2018-10-19T10:07:54.987Z,21.27
2018-10-19T10:10:24.718Z,20.77
2018-10-19T10:12:54.493Z,21.67
2018-10-19T10:15:24.566Z,20.57
2018-10-19T10:17:54.430Z,19.43
2018-10-19T10:20:24.194Z,17.57
2018-10-19T10:22:53.944Z,18.20
2018-10-19T10:25:23.713Z,18.23
2018-10-19T10:27:53.491Z,17.70
2018-10-19T10:30:23.176Z,16.80
2018-10-19T10:32:52.921Z,16.87
2018-10-19T10:35:22.645Z,15.90
2018-10-19T10:37:52.721Z,17.33
2018-10-19T10:40:22.511Z,15.20
2018-10-19T10:42:52.270Z,15.30
2018-10-19T10:45:22.033Z,13.30
2018-10-19T10:47:51.920Z,13.00
2018-10-19T10:50:21.566Z,15.67
2018-10-19T10:52:52.693Z,13.30
2018-10-19T10:55:22.485Z,14.73
2018-10-19T10:57:52.298Z,13.13
2018-10-19T11:00:22.793Z,13.37
2018-10-19T11:02:52.534Z,12.83
2018-10-19T11:05:22.311Z,14.27
2018-10-19T11:07:52.187Z,13.57
2018-10-19T11:10:22.064Z,13.47
2018-10-19T11:12:51.963Z,13.33
2018-10-19T11:15:21.776Z,14.40
2018-10-19T11:17:51.768Z,13.07
2018-10-19T11:20:21.820Z,13.50
2018-10-19T11:22:52.314Z,14.00
2018-10-19T11:25:21.965Z,12.93
2018-10-19T11:27:51.706Z,12.93
2018-10-19T11:30:21.398Z,13.70
2018-10-19T11:32:52.512Z,14.20
2018-10-19T11:35:22.393Z,13.57
2018-10-19T11:37:52.160Z,14.27
2018-10-19T11:40:32.230Z,16.00
2018-10-19T11:43:02.138Z,15.13
2018-10-19T11:45:33.409Z,13.90
2018-10-19T11:48:03.267Z,14.50
2018-10-19T11:50:34.175Z,15.70
2018-10-19T11:53:04.291Z,16.83
2018-10-19T11:55:34.036Z,15.67
2018-10-19T11:58:03.819Z,15.67
2018-10-19T12:00:33.665Z,16.47
2018-10-19T12:03:03.795Z,16.17
2018-10-19T12:05:34.661Z,16.07
2018-10-19T12:08:04.418Z,15.27
2018-10-19T12:10:34.356Z,15.07
2018-10-19T12:13:04.373Z,16.40
2018-10-19T12:15:34.301Z,16.77
2018-10-19T12:18:04.110Z,15.30
2018-10-19T12:20:33.774Z,15.97
2018-10-19T12:23:03.600Z,15.00
2018-10-19T12:25:33.326Z,15.97
2018-10-19T12:28:03.126Z,15.23
2018-10-19T12:30:33.002Z,15.80
2018-10-19T12:33:02.856Z,15.80
2018-10-19T12:35:32.760Z,16.57
2018-10-19T12:38:02.661Z,16.07
2018-10-19T12:40:34.299Z,15.20
2018-10-19T12:43:04.182Z,15.83
2018-10-19T12:46:46.634Z,15.30
2018-10-19T12:49:17.924Z,14.87
2018-10-19T12:51:47.830Z,15.63
2018-10-19T12:54:18.029Z,14.87
2018-10-19T12:56:47.946Z,14.67
2018-10-19T12:59:18.692Z,15.30
2018-10-19T13:01:48.442Z,14.70
2018-10-19T13:04:18.220Z,16.10
2018-10-19T13:06:47.955Z,14.10
2018-10-19T13:09:17.876Z,16.60
2018-10-19T13:11:47.697Z,14.57
2018-10-19T13:14:17.416Z,16.93
2018-10-19T13:16:47.142Z,15.03
2018-10-19T13:19:17.100Z,14.30
2018-10-19T13:21:48.460Z,15.50
2018-10-19T13:24:18.320Z,15.10
2018-10-19T13:26:48.066Z,16.00
2018-10-19T13:29:17.849Z,15.40
2018-10-19T13:31:48.088Z,15.70
2018-10-19T13:34:19.717Z,15.37
2018-10-19T13:36:49.478Z,15.23
2018-10-19T13:39:20.169Z,15.70
2018-10-19T13:41:50.814Z,14.53
2018-10-19T13:44:20.807Z,16.90
2018-10-19T13:46:50.591Z,15.50
2018-10-19T13:49:20.340Z,16.30
2018-10-19T13:51:51.695Z,15.10
2018-10-19T13:54:23.537Z,15.30
2018-10-19T13:56:53.416Z,15.40
2018-10-19T13:59:23.345Z,14.30
2018-10-19T14:01:53.187Z,13.93
2018-10-19T14:04:23.077Z,14.20
2018-10-19T14:06:52.922Z,14.93
2018-10-19T14:09:22.753Z,14.43
2018-10-19T14:11:52.468Z,14.83
2018-10-19T14:14:22.349Z,15.07
2018-10-19T14:16:52.472Z,14.53
2018-10-19T14:19:23.617Z,14.73
2018-10-19T14:21:53.495Z,13.97
2018-10-19T14:24:25.213Z,14.30
2018-10-19T14:26:56.085Z,17.00
2018-10-19T14:29:25.803Z,14.67
2018-10-19T14:31:55.436Z,17.23
2018-10-19T14:34:25.410Z,16.97
2018-10-19T14:36:55.211Z,15.77
2018-10-19T14:39:26.141Z,16.63
2018-10-19T14:41:56.099Z,17.37
2018-10-19T14:44:25.853Z,17.10
2018-10-19T14:46:55.715Z,17.43
2018-10-19T14:49:25.496Z,17.47
2018-10-19T14:51:56.870Z,16.97
2018-10-19T14:54:27.742Z,16.90
2018-10-19T14:56:58.309Z,17.20
2018-10-19T14:59:29.331Z,16.80
2018-10-19T15:01:59.993Z,16.17
2018-10-19T15:04:30.061Z,16.47
2018-10-19T15:07:00.088Z,15.70
2018-10-19T15:09:30.003Z,19.23
2018-10-19T15:11:59.914Z,17.80
2018-10-19T15:14:29.715Z,18.20
2018-10-19T15:16:59.524Z,17.47
2018-10-19T15:19:29.323Z,20.00
2018-10-19T15:21:59.964Z,18.20
2018-10-19T15:24:29.961Z,17.43
2018-10-19T15:27:00.448Z,16.97
2018-10-19T15:29:30.280Z,18.13
2018-10-19T15:32:01.368Z,19.33
2018-10-19T15:34:31.053Z,21.00
2018-10-19T15:37:01.110Z,20.33
2018-10-19T15:39:30.921Z,21.43
2018-10-19T15:42:00.673Z,22.00
2018-10-19T15:44:30.567Z,22.93
2018-10-19T15:47:02.840Z,23.00
2018-10-19T15:49:33.062Z,24.03
2018-10-19T15:52:03.201Z,24.93
2018-10-19T15:54:33.312Z,26.00
2018-10-19T15:57:03.489Z,28.27
2018-10-19T15:59:33.395Z,27.97
2018-10-19T16:02:03.147Z,25.90
2018-10-19T16:04:35.435Z,23.20
2018-10-19T16:07:05.432Z,25.00
2018-10-19T16:09:35.492Z,22.80
2018-10-19T16:12:05.666Z,22.27
2018-10-19T16:14:35.764Z,23.03
2018-10-19T16:17:07.097Z,23.23
2018-10-19T16:19:37.292Z,22.67
2018-10-19T16:22:08.652Z,24.00
2018-10-19T16:24:39.088Z,25.83
2018-10-19T16:27:09.074Z,26.10
2018-10-19T16:29:38.921Z,27.97
2018-10-19T16:32:08.830Z,26.77
2018-10-19T16:34:38.852Z,30.03
2018-10-19T16:37:08.906Z,35.03
2018-10-19T16:39:38.796Z,33.83
2018-10-19T16:42:08.797Z,32.47
2018-10-19T16:44:38.560Z,31.23
2018-10-19T16:47:08.914Z,28.20
2018-10-19T16:49:38.892Z,31.70
2018-10-19T16:52:09.978Z,28.70
2018-10-19T16:54:39.907Z,31.30
2018-10-19T16:57:09.855Z,28.30
2018-10-19T16:59:41.663Z,27.80
2018-10-19T17:02:11.438Z,27.20
2018-10-19T17:04:41.413Z,26.40
2018-10-19T17:07:12.242Z,26.97
2018-10-19T17:09:42.166Z,26.27
2018-10-19T17:12:12.880Z,27.50
2018-10-19T17:14:42.800Z,26.17
2018-10-19T17:17:12.621Z,29.00
2018-10-19T17:19:42.554Z,27.33
2018-10-19T17:22:12.449Z,29.67
2018-10-19T17:24:42.343Z,26.53
2018-10-19T17:27:14.454Z,27.23
2018-10-19T17:29:44.469Z,27.00
2018-10-19T17:32:14.241Z,26.23
2018-10-19T17:34:44.206Z,24.30
2018-10-19T17:37:14.086Z,24.20
2018-10-19T17:39:44.158Z,25.17
2018-10-19T17:42:14.337Z,24.20
2018-10-19T17:44:44.463Z,24.17
2018-10-19T17:47:16.173Z,25.53
2018-10-19T17:49:46.185Z,22.93
2018-10-19T17:52:16.495Z,27.47
2018-10-19T17:54:47.455Z,24.83
2018-10-19T17:57:17.413Z,27.00
2018-10-19T17:59:47.628Z,24.73
2018-10-19T18:02:18.935Z,27.70
2018-10-19T18:04:48.867Z,27.30
2018-10-19T18:07:18.751Z,27.43
2018-10-19T18:09:48.985Z,26.43
2018-10-19T18:12:19.211Z,24.20
2018-10-19T18:14:49.015Z,24.83
2018-10-19T18:17:18.905Z,26.60
2018-10-19T18:19:48.743Z,25.17
2018-10-19T18:22:18.889Z,24.50
2018-10-19T18:24:48.612Z,25.40
2018-10-19T18:27:18.637Z,22.90
2018-10-19T18:29:48.581Z,21.97
2018-10-19T18:32:18.327Z,23.13
2018-10-19T18:34:48.095Z,22.53
2018-10-19T18:37:17.947Z,22.90
2018-10-19T18:39:47.779Z,23.07
2018-10-19T18:42:17.663Z,21.63
2018-10-19T18:44:47.463Z,23.60
2018-10-19T18:47:17.289Z,23.40
2018-10-19T18:49:47.020Z,22.17
2018-10-19T18:52:17.203Z,22.80
2018-10-19T18:54:47.027Z,21.27
2018-10-19T18:57:16.909Z,22.30
2018-10-19T18:59:46.656Z,20.80
2018-10-19T19:02:16.585Z,22.83
2018-10-19T19:04:46.569Z,22.03
2018-10-19T19:07:16.379Z,23.70
2018-10-19T19:09:51.198Z,22.80
2018-10-19T19:12:20.938Z,20.63
2018-10-19T19:14:50.714Z,22.80
2018-10-19T19:17:20.904Z,22.73
2018-10-19T19:19:55.651Z,21.53
2018-10-19T19:22:26.127Z,21.70
2018-10-19T19:25:03.649Z,21.67
2018-10-19T19:27:37.290Z,24.03
2018-10-19T19:30:08.260Z,24.20
2018-10-19T19:32:40.430Z,22.40
2018-10-19T19:35:15.824Z,23.10
2018-10-19T19:37:45.631Z,22.53
2018-10-19T19:40:15.452Z,22.70
2018-10-19T19:42:48.928Z,22.43
2018-10-19T19:45:19.299Z,22.30
2018-10-19T19:47:54.248Z,22.73
2018-10-19T19:50:25.570Z,22.80
2018-10-19T19:53:02.183Z,24.93
2018-10-19T19:55:32.178Z,25.30
2018-10-19T19:58:02.125Z,22.57
2018-10-19T20:00:32.097Z,24.03
2018-10-19T20:03:01.971Z,24.93
2018-10-19T20:05:33.927Z,23.73
2018-10-19T20:08:06.359Z,23.60
2018-10-19T20:10:36.700Z,26.07
2018-10-19T20:13:08.501Z,22.60
2018-10-19T20:15:38.344Z,24.10
2018-10-19T20:18:08.146Z,23.93
2018-10-19T20:20:39.199Z,24.80
2018-10-19T20:23:11.325Z,24.20
2018-10-19T20:25:41.698Z,26.07
2018-10-19T20:28:12.504Z,25.77
2018-10-19T20:30:45.639Z,25.90
2018-10-19T20:33:15.662Z,27.10
2018-10-19T20:35:46.392Z,25.73
2018-10-19T20:38:18.515Z,26.47
2018-10-19T20:40:48.445Z,24.80
2018-10-19T20:43:18.179Z,24.80
2018-10-19T20:45:49.249Z,25.23
2018-10-19T20:48:19.125Z,23.70
2018-10-19T20:50:48.887Z,24.57
2018-10-19T20:53:18.670Z,22.60
2018-10-19T20:55:49.478Z,23.73
2018-10-19T20:58:19.249Z,24.57
2018-10-19T21:00:49.064Z,24.47
2018-10-19T21:03:18.843Z,24.30
2018-10-19T21:05:48.753Z,23.80
2018-10-19T21:08:18.844Z,22.27
2018-10-19T21:10:49.873Z,22.50
2018-10-19T21:13:19.775Z,25.60
2018-10-19T21:15:49.662Z,25.93
2018-10-19T21:18:20.563Z,23.20
2018-10-19T21:20:50.554Z,23.60
2018-10-19T21:23:20.577Z,23.40
2018-10-19T21:25:50.352Z,24.17
2018-10-19T21:28:20.270Z,24.67
2018-10-19T21:30:50.029Z,22.53
2018-10-19T21:33:19.936Z,23.37
2018-10-19T21:35:49.850Z,23.90
2018-10-19T21:38:19.815Z,23.17
2018-10-19T21:40:49.776Z,24.87
2018-10-19T21:43:19.739Z,26.23
2018-10-19T21:45:49.578Z,25.23
2018-10-19T21:48:19.373Z,25.80
2018-10-19T21:50:49.263Z,26.10
2018-10-19T21:53:19.227Z,26.13
2018-10-19T21:55:49.284Z,24.60
2018-10-19T21:58:19.241Z,25.50
2018-10-19T22:00:49.216Z,24.17
2018-10-19T22:03:19.126Z,26.90
2018-10-19T22:05:48.917Z,25.90
2018-10-19T22:08:18.877Z,25.33
2018-10-19T22:10:48.763Z,25.30
2018-10-19T22:13:18.935Z,26.63
2018-10-19T22:15:48.813Z,25.53
2018-10-19T22:18:18.753Z,25.93
2018-10-19T22:20:48.613Z,25.30
2018-10-19T22:23:18.702Z,26.30
2018-10-19T22:25:48.603Z,25.00
2018-10-19T22:28:18.362Z,23.50
2018-10-19T22:30:48.208Z,25.80
2018-10-19T22:33:18.741Z,26.27
2018-10-19T22:35:48.490Z,25.57
2018-10-19T22:38:18.538Z,25.83
2018-10-19T22:40:48.437Z,23.70
2018-10-19T22:43:18.281Z,24.17
2018-10-19T22:45:48.022Z,27.17
2018-10-19T22:48:18.069Z,26.80
2018-10-19T22:50:47.913Z,25.70
2018-10-19T22:53:19.067Z,26.80
2018-10-19T22:55:49.058Z,25.17
2018-10-19T22:58:19.031Z,25.70
2018-10-19T23:00:48.805Z,26.87
2018-10-19T23:03:18.842Z,27.03
2018-10-19T23:05:48.817Z,26.90
2018-10-19T23:08:18.653Z,26.20
2018-10-19T23:10:48.615Z,25.90
2018-10-19T23:13:18.401Z,28.50
2018-10-19T23:15:49.382Z,28.23
2018-10-19T23:18:19.235Z,27.13
2018-10-19T23:20:49.056Z,25.73
2018-10-19T23:23:18.932Z,27.93
2018-10-19T23:25:48.824Z,28.07
2018-10-19T23:28:19.556Z,31.23
2018-10-19T23:30:50.841Z,28.73
2018-10-19T23:33:20.625Z,27.93
2018-10-19T23:35:50.673Z,27.67
2018-10-19T23:38:20.389Z,28.80
2018-10-19T23:40:50.156Z,28.10
2018-10-19T23:43:21.095Z,26.27
2018-10-19T23:45:50.826Z,28.57
2018-10-19T23:48:20.874Z,29.50
2018-10-19T23:50:50.679Z,28.73
2018-10-19T23:53:20.532Z,26.80
2018-10-19T23:55:50.330Z,27.10
2018-10-19T23:58:20.056Z,27.17
